sensor_id;sensor_type;location;lat;lon;timestamp;temperature;humidity
8896;DHT22;4484;48.928;10.066;2023-12-20T00:02:15;3.60;99.90
8896;DHT22;4484;48.928;10.066;2023-12-20T00:04:42;3.60;99.90
8896;DHT22;4484;48.928;10.066;2023-12-20T00:07:09;3.60;99.90
8896;DHT22;4484;48.928;10.066;2023-12-20T00:09:36;3.60;99.90
8896;DHT22;4484;48.928;10.066;2023-12-20T00:12:03;3.60;99.90
8896;DHT22;4484;48.928;10.066;2023-12-20T00:14:30;3.60;99.90
8896;DHT22;4484;48.928;10.066;2023-12-20T00:16:56;3.70;99.90
8896;DHT22;4484;48.928;10.066;2023-12-20T00:19:23;3.70;99.90
8896;DHT22;4484;48.928;10.066;2023-12-20T00:21:50;3.70;99.90
8896;DHT22;4484;48.928;10.066;2023-12-20T00:24:17;3.70;99.90
8896;DHT22;4484;48.928;10.066;2023-12-20T00:26:44;3.70;99.90
8896;DHT22;4484;48.928;10.066;2023-12-20T00:29:11;3.70;99.90
8896;DHT22;4484;48.928;10.066;2023-12-20T00:31:38;3.70;99.90
8896;DHT22;4484;48.928;10.066;2023-12-20T00:34:05;3.80;99.90
8896;DHT22;4484;48.928;10.066;2023-12-20T00:36:31;3.80;99.90
8896;DHT22;4484;48.928;10.066;2023-12-20T00:38:58;3.80;99.90
8896;DHT22;4484;48.928;10.066;2023-12-20T00:41:25;3.80;99.90
8896;DHT22;4484;48.928;10.066;2023-12-20T00:43:52;3.80;99.90
8896;DHT22;4484;48.928;10.066;2023-12-20T00:46:19;3.80;99.90
8896;DHT22;4484;48.928;10.066;2023-12-20T00:48:46;3.80;99.90
8896;DHT22;4484;48.928;10.066;2023-12-20T00:51:13;3.80;99.90
8896;DHT22;4484;48.928;10.066;2023-12-20T00:53:40;3.80;99.90
8896;DHT22;4484;48.928;10.066;2023-12-20T00:56:06;3.80;99.90
8896;DHT22;4484;48.928;10.066;2023-12-20T00:58:33;3.90;99.90
8896;DHT22;4484;48.928;10.066;2023-12-20T01:01:00;3.90;99.90
8896;DHT22;4484;48.928;10.066;2023-12-20T01:03:27;3.90;99.90
8896;DHT22;4484;48.928;10.066;2023-12-20T01:05:54;3.90;99.90
8896;DHT22;4484;48.928;10.066;2023-12-20T01:08:21;3.90;99.90
8896;DHT22;4484;48.928;10.066;2023-12-20T01:10:48;3.90;99.90
8896;DHT22;4484;48.928;10.066;2023-12-20T01:13:14;4.00;99.90
8896;DHT22;4484;48.928;10.066;2023-12-20T01:15:41;3.90;99.90
8896;DHT22;4484;48.928;10.066;2023-12-20T01:18:08;3.90;99.90
8896;DHT22;4484;48.928;10.066;2023-12-20T01:20:35;3.90;99.90
8896;DHT22;4484;48.928;10.066;2023-12-20T01:23:03;3.90;99.90
8896;DHT22;4484;48.928;10.066;2023-12-20T01:25:29;3.90;99.90
8896;DHT22;4484;48.928;10.066;2023-12-20T01:27:56;3.90;99.90
8896;DHT22;4484;48.928;10.066;2023-12-20T01:30:23;3.90;99.90
8896;DHT22;4484;48.928;10.066;2023-12-20T01:32:51;3.90;99.90
8896;DHT22;4484;48.928;10.066;2023-12-20T01:35:18;3.90;99.90
8896;DHT22;4484;48.928;10.066;2023-12-20T01:37:45;3.90;99.90
8896;DHT22;4484;48.928;10.066;2023-12-20T01:40:12;3.90;99.90
8896;DHT22;4484;48.928;10.066;2023-12-20T01:42:39;3.90;99.90
8896;DHT22;4484;48.928;10.066;2023-12-20T01:45:07;4.00;99.90
8896;DHT22;4484;48.928;10.066;2023-12-20T01:47:36;4.00;99.90
8896;DHT22;4484;48.928;10.066;2023-12-20T01:50:04;3.90;99.90
8896;DHT22;4484;48.928;10.066;2023-12-20T01:52:31;4.00;99.90
8896;DHT22;4484;48.928;10.066;2023-12-20T01:55:00;3.90;99.90
8896;DHT22;4484;48.928;10.066;2023-12-20T01:57:30;3.90;99.90
8896;DHT22;4484;48.928;10.066;2023-12-20T01:59:57;3.90;99.90
8896;DHT22;4484;48.928;10.066;2023-12-20T02:02:26;3.90;99.90
8896;DHT22;4484;48.928;10.066;2023-12-20T02:04:54;4.00;99.90
8896;DHT22;4484;48.928;10.066;2023-12-20T02:07:21;4.00;99.90
8896;DHT22;4484;48.928;10.066;2023-12-20T02:09:49;3.90;99.90
8896;DHT22;4484;48.928;10.066;2023-12-20T02:12:16;3.90;99.90
8896;DHT22;4484;48.928;10.066;2023-12-20T02:14:43;3.90;99.90
8896;DHT22;4484;48.928;10.066;2023-12-20T02:17:10;4.00;99.90
8896;DHT22;4484;48.928;10.066;2023-12-20T02:19:37;4.00;99.90
8896;DHT22;4484;48.928;10.066;2023-12-20T02:22:08;4.00;99.90
8896;DHT22;4484;48.928;10.066;2023-12-20T02:24:36;4.00;99.90
8896;DHT22;4484;48.928;10.066;2023-12-20T02:27:03;4.00;99.90
8896;DHT22;4484;48.928;10.066;2023-12-20T02:29:35;4.00;99.90
8896;DHT22;4484;48.928;10.066;2023-12-20T02:32:02;3.90;99.90
8896;DHT22;4484;48.928;10.066;2023-12-20T02:34:29;3.90;99.90
8896;DHT22;4484;48.928;10.066;2023-12-20T02:36:56;3.90;99.90
8896;DHT22;4484;48.928;10.066;2023-12-20T02:39:23;3.90;99.90
8896;DHT22;4484;48.928;10.066;2023-12-20T02:41:50;4.00;99.90
8896;DHT22;4484;48.928;10.066;2023-12-20T02:44:17;4.00;99.90
8896;DHT22;4484;48.928;10.066;2023-12-20T02:46:44;4.00;99.90
8896;DHT22;4484;48.928;10.066;2023-12-20T02:49:11;4.00;99.90
8896;DHT22;4484;48.928;10.066;2023-12-20T02:51:38;4.00;99.90
8896;DHT22;4484;48.928;10.066;2023-12-20T02:54:05;3.90;99.90
8896;DHT22;4484;48.928;10.066;2023-12-20T02:56:33;3.90;99.90
8896;DHT22;4484;48.928;10.066;2023-12-20T02:59:00;4.00;99.90
8896;DHT22;4484;48.928;10.066;2023-12-20T03:01:28;4.00;99.90
8896;DHT22;4484;48.928;10.066;2023-12-20T03:03:55;4.00;99.90
8896;DHT22;4484;48.928;10.066;2023-12-20T03:06:22;4.00;99.90
8896;DHT22;4484;48.928;10.066;2023-12-20T03:08:49;4.00;99.90
8896;DHT22;4484;48.928;10.066;2023-12-20T03:11:16;4.00;99.90
8896;DHT22;4484;48.928;10.066;2023-12-20T03:13:42;3.90;99.90
8896;DHT22;4484;48.928;10.066;2023-12-20T03:16:10;3.90;99.90
8896;DHT22;4484;48.928;10.066;2023-12-20T03:18:37;3.90;99.90
8896;DHT22;4484;48.928;10.066;2023-12-20T03:21:04;3.90;99.90
8896;DHT22;4484;48.928;10.066;2023-12-20T03:23:32;3.90;99.90
8896;DHT22;4484;48.928;10.066;2023-12-20T03:26:01;3.90;99.90
8896;DHT22;4484;48.928;10.066;2023-12-20T03:28:29;3.90;99.90
8896;DHT22;4484;48.928;10.066;2023-12-20T03:30:56;3.90;99.90
8896;DHT22;4484;48.928;10.066;2023-12-20T03:33:23;3.90;99.90
8896;DHT22;4484;48.928;10.066;2023-12-20T03:35:49;3.90;99.90
8896;DHT22;4484;48.928;10.066;2023-12-20T03:38:16;3.90;99.90
8896;DHT22;4484;48.928;10.066;2023-12-20T03:40:43;3.90;99.90
8896;DHT22;4484;48.928;10.066;2023-12-20T03:43:10;3.80;99.90
8896;DHT22;4484;48.928;10.066;2023-12-20T03:45:37;3.80;99.90
8896;DHT22;4484;48.928;10.066;2023-12-20T03:48:04;3.80;99.90
8896;DHT22;4484;48.928;10.066;2023-12-20T03:50:32;3.90;99.90
8896;DHT22;4484;48.928;10.066;2023-12-20T03:52:59;3.80;99.90
8896;DHT22;4484;48.928;10.066;2023-12-20T03:55:25;3.80;99.90
8896;DHT22;4484;48.928;10.066;2023-12-20T03:57:52;3.80;99.90
8896;DHT22;4484;48.928;10.066;2023-12-20T04:00:20;3.70;99.90
8896;DHT22;4484;48.928;10.066;2023-12-20T04:02:47;3.70;99.90
8896;DHT22;4484;48.928;10.066;2023-12-20T04:05:14;3.70;99.90
8896;DHT22;4484;48.928;10.066;2023-12-20T04:07:41;3.70;99.90
8896;DHT22;4484;48.928;10.066;2023-12-20T04:10:08;3.70;99.90
8896;DHT22;4484;48.928;10.066;2023-12-20T04:12:35;3.60;99.90
8896;DHT22;4484;48.928;10.066;2023-12-20T04:15:02;3.60;99.90
8896;DHT22;4484;48.928;10.066;2023-12-20T04:17:35;3.60;99.90
8896;DHT22;4484;48.928;10.066;2023-12-20T04:20:03;3.60;99.90
8896;DHT22;4484;48.928;10.066;2023-12-20T04:22:31;3.60;99.90
8896;DHT22;4484;48.928;10.066;2023-12-20T04:24:58;3.60;99.90
8896;DHT22;4484;48.928;10.066;2023-12-20T04:27:25;3.50;99.90
8896;DHT22;4484;48.928;10.066;2023-12-20T04:29:51;3.50;99.90
8896;DHT22;4484;48.928;10.066;2023-12-20T04:32:18;3.40;99.90
8896;DHT22;4484;48.928;10.066;2023-12-20T04:34:45;3.40;99.90
8896;DHT22;4484;48.928;10.066;2023-12-20T04:37:12;3.30;99.90
8896;DHT22;4484;48.928;10.066;2023-12-20T04:39:39;3.30;99.90
8896;DHT22;4484;48.928;10.066;2023-12-20T04:42:07;3.30;99.90
8896;DHT22;4484;48.928;10.066;2023-12-20T04:44:34;3.30;99.90
8896;DHT22;4484;48.928;10.066;2023-12-20T04:47:01;3.30;99.90
8896;DHT22;4484;48.928;10.066;2023-12-20T04:49:27;3.30;99.90
8896;DHT22;4484;48.928;10.066;2023-12-20T04:51:54;3.30;99.90
8896;DHT22;4484;48.928;10.066;2023-12-20T04:54:22;3.30;99.90
8896;DHT22;4484;48.928;10.066;2023-12-20T04:56:49;3.30;99.90
8896;DHT22;4484;48.928;10.066;2023-12-20T04:59:16;3.30;99.90
8896;DHT22;4484;48.928;10.066;2023-12-20T05:01:43;3.30;99.90
8896;DHT22;4484;48.928;10.066;2023-12-20T05:04:10;3.20;99.90
8896;DHT22;4484;48.928;10.066;2023-12-20T05:06:37;3.20;99.90
8896;DHT22;4484;48.928;10.066;2023-12-20T05:09:04;3.20;99.90
8896;DHT22;4484;48.928;10.066;2023-12-20T05:11:31;3.30;99.90
8896;DHT22;4484;48.928;10.066;2023-12-20T05:13:58;3.20;99.90
8896;DHT22;4484;48.928;10.066;2023-12-20T05:16:24;3.20;99.90
8896;DHT22;4484;48.928;10.066;2023-12-20T05:18:51;3.20;99.90
8896;DHT22;4484;48.928;10.066;2023-12-20T05:21:19;3.20;99.90
8896;DHT22;4484;48.928;10.066;2023-12-20T05:23:46;3.20;99.90
8896;DHT22;4484;48.928;10.066;2023-12-20T05:26:13;3.20;99.90
8896;DHT22;4484;48.928;10.066;2023-12-20T05:28:40;3.20;99.90
8896;DHT22;4484;48.928;10.066;2023-12-20T05:31:06;3.20;99.90
8896;DHT22;4484;48.928;10.066;2023-12-20T05:33:33;3.20;99.90
8896;DHT22;4484;48.928;10.066;2023-12-20T05:36:01;3.20;99.90
8896;DHT22;4484;48.928;10.066;2023-12-20T05:38:27;3.20;99.90
8896;DHT22;4484;48.928;10.066;2023-12-20T05:40:54;3.20;99.90
8896;DHT22;4484;48.928;10.066;2023-12-20T05:43:21;3.20;99.90
8896;DHT22;4484;48.928;10.066;2023-12-20T05:45:48;3.20;99.90
8896;DHT22;4484;48.928;10.066;2023-12-20T05:48:15;3.20;99.90
8896;DHT22;4484;48.928;10.066;2023-12-20T05:50:41;3.20;99.90
8896;DHT22;4484;48.928;10.066;2023-12-20T05:53:09;3.20;99.90
8896;DHT22;4484;48.928;10.066;2023-12-20T05:55:35;3.20;99.90
8896;DHT22;4484;48.928;10.066;2023-12-20T05:58:02;3.20;99.90
8896;DHT22;4484;48.928;10.066;2023-12-20T06:00:29;3.20;99.90
8896;DHT22;4484;48.928;10.066;2023-12-20T06:02:56;3.20;99.90
8896;DHT22;4484;48.928;10.066;2023-12-20T06:05:23;3.20;99.90
8896;DHT22;4484;48.928;10.066;2023-12-20T06:07:50;3.20;99.90
8896;DHT22;4484;48.928;10.066;2023-12-20T06:10:17;3.20;99.90
8896;DHT22;4484;48.928;10.066;2023-12-20T06:12:45;3.20;99.90
8896;DHT22;4484;48.928;10.066;2023-12-20T06:15:14;3.20;99.90
8896;DHT22;4484;48.928;10.066;2023-12-20T06:17:41;3.20;99.90
8896;DHT22;4484;48.928;10.066;2023-12-20T06:20:08;3.20;99.90
8896;DHT22;4484;48.928;10.066;2023-12-20T06:22:36;3.20;99.90
8896;DHT22;4484;48.928;10.066;2023-12-20T06:25:03;3.20;99.90
8896;DHT22;4484;48.928;10.066;2023-12-20T06:27:30;3.30;99.90
8896;DHT22;4484;48.928;10.066;2023-12-20T06:29:59;3.30;99.90
8896;DHT22;4484;48.928;10.066;2023-12-20T06:32:26;3.30;99.90
8896;DHT22;4484;48.928;10.066;2023-12-20T06:34:52;3.30;99.90
8896;DHT22;4484;48.928;10.066;2023-12-20T06:37:19;3.30;99.90
8896;DHT22;4484;48.928;10.066;2023-12-20T06:39:46;3.30;99.90
8896;DHT22;4484;48.928;10.066;2023-12-20T06:42:13;3.30;99.90
8896;DHT22;4484;48.928;10.066;2023-12-20T06:44:40;3.30;99.90
8896;DHT22;4484;48.928;10.066;2023-12-20T06:47:07;3.40;99.90
8896;DHT22;4484;48.928;10.066;2023-12-20T06:49:34;3.40;99.90
8896;DHT22;4484;48.928;10.066;2023-12-20T06:52:01;3.40;99.90
8896;DHT22;4484;48.928;10.066;2023-12-20T06:54:28;3.40;99.90
8896;DHT22;4484;48.928;10.066;2023-12-20T06:56:55;3.40;99.90
8896;DHT22;4484;48.928;10.066;2023-12-20T06:59:22;3.40;99.90
8896;DHT22;4484;48.928;10.066;2023-12-20T07:01:49;3.40;99.90
8896;DHT22;4484;48.928;10.066;2023-12-20T07:04:16;3.40;99.90
8896;DHT22;4484;48.928;10.066;2023-12-20T07:06:48;3.50;99.90
8896;DHT22;4484;48.928;10.066;2023-12-20T07:09:18;3.50;99.90
8896;DHT22;4484;48.928;10.066;2023-12-20T07:11:45;3.50;99.90
8896;DHT22;4484;48.928;10.066;2023-12-20T07:14:12;3.50;99.90
8896;DHT22;4484;48.928;10.066;2023-12-20T07:16:39;3.50;99.90
8896;DHT22;4484;48.928;10.066;2023-12-20T07:19:07;3.50;99.90
8896;DHT22;4484;48.928;10.066;2023-12-20T07:21:34;3.50;99.90
8896;DHT22;4484;48.928;10.066;2023-12-20T07:24:01;3.50;99.90
8896;DHT22;4484;48.928;10.066;2023-12-20T07:26:28;3.50;99.90
8896;DHT22;4484;48.928;10.066;2023-12-20T07:28:55;3.50;99.90
8896;DHT22;4484;48.928;10.066;2023-12-20T07:31:21;3.50;99.90
8896;DHT22;4484;48.928;10.066;2023-12-20T07:33:50;3.50;99.90
8896;DHT22;4484;48.928;10.066;2023-12-20T07:36:19;3.50;99.90
8896;DHT22;4484;48.928;10.066;2023-12-20T07:38:45;3.50;99.90
8896;DHT22;4484;48.928;10.066;2023-12-20T07:41:12;3.60;99.90
8896;DHT22;4484;48.928;10.066;2023-12-20T07:43:39;3.60;99.90
8896;DHT22;4484;48.928;10.066;2023-12-20T07:46:07;3.60;99.90
8896;DHT22;4484;48.928;10.066;2023-12-20T07:48:35;3.60;99.90
8896;DHT22;4484;48.928;10.066;2023-12-20T07:51:03;3.60;99.90
8896;DHT22;4484;48.928;10.066;2023-12-20T07:53:30;3.60;99.90
8896;DHT22;4484;48.928;10.066;2023-12-20T07:55:57;3.60;99.90
8896;DHT22;4484;48.928;10.066;2023-12-20T07:58:23;3.60;99.90
8896;DHT22;4484;48.928;10.066;2023-12-20T08:01:06;3.70;99.90
8896;DHT22;4484;48.928;10.066;2023-12-20T08:03:33;3.70;99.90
8896;DHT22;4484;48.928;10.066;2023-12-20T08:06:00;3.70;99.90
8896;DHT22;4484;48.928;10.066;2023-12-20T08:08:27;3.70;99.90
8896;DHT22;4484;48.928;10.066;2023-12-20T08:10:54;3.70;99.90
8896;DHT22;4484;48.928;10.066;2023-12-20T08:13:21;3.70;99.90
8896;DHT22;4484;48.928;10.066;2023-12-20T08:15:53;3.80;99.90
8896;DHT22;4484;48.928;10.066;2023-12-20T08:18:20;3.80;99.90
8896;DHT22;4484;48.928;10.066;2023-12-20T08:20:47;3.80;99.90
8896;DHT22;4484;48.928;10.066;2023-12-20T08:23:15;3.80;99.90
8896;DHT22;4484;48.928;10.066;2023-12-20T08:25:42;3.80;99.90
8896;DHT22;4484;48.928;10.066;2023-12-20T08:28:09;3.80;99.90
8896;DHT22;4484;48.928;10.066;2023-12-20T08:30:36;3.80;99.90
8896;DHT22;4484;48.928;10.066;2023-12-20T08:33:03;3.80;99.90
8896;DHT22;4484;48.928;10.066;2023-12-20T08:35:30;3.80;99.90
8896;DHT22;4484;48.928;10.066;2023-12-20T08:37:57;3.80;99.90
8896;DHT22;4484;48.928;10.066;2023-12-20T08:40:23;3.80;99.90
8896;DHT22;4484;48.928;10.066;2023-12-20T08:42:50;3.70;99.90
8896;DHT22;4484;48.928;10.066;2023-12-20T08:45:17;3.80;99.90
8896;DHT22;4484;48.928;10.066;2023-12-20T08:47:44;3.70;99.90
8896;DHT22;4484;48.928;10.066;2023-12-20T08:50:12;3.70;99.90
8896;DHT22;4484;48.928;10.066;2023-12-20T08:52:39;3.70;99.90
8896;DHT22;4484;48.928;10.066;2023-12-20T08:55:06;3.70;99.90
8896;DHT22;4484;48.928;10.066;2023-12-20T08:57:33;3.70;99.90
8896;DHT22;4484;48.928;10.066;2023-12-20T09:00:00;3.70;99.90
8896;DHT22;4484;48.928;10.066;2023-12-20T09:02:27;3.70;99.90
8896;DHT22;4484;48.928;10.066;2023-12-20T09:04:54;3.70;99.90
8896;DHT22;4484;48.928;10.066;2023-12-20T09:07:23;3.70;99.90
8896;DHT22;4484;48.928;10.066;2023-12-20T09:09:51;3.70;99.90
8896;DHT22;4484;48.928;10.066;2023-12-20T09:12:19;3.70;99.90
8896;DHT22;4484;48.928;10.066;2023-12-20T09:14:47;3.70;99.90
8896;DHT22;4484;48.928;10.066;2023-12-20T09:17:14;3.70;99.90
8896;DHT22;4484;48.928;10.066;2023-12-20T09:19:43;3.70;99.90
8896;DHT22;4484;48.928;10.066;2023-12-20T09:22:13;3.80;99.90
8896;DHT22;4484;48.928;10.066;2023-12-20T09:24:40;3.80;99.90
8896;DHT22;4484;48.928;10.066;2023-12-20T09:27:07;3.80;99.90
8896;DHT22;4484;48.928;10.066;2023-12-20T09:29:33;3.80;99.90
8896;DHT22;4484;48.928;10.066;2023-12-20T09:32:00;3.80;99.90
8896;DHT22;4484;48.928;10.066;2023-12-20T09:34:27;3.80;99.90
8896;DHT22;4484;48.928;10.066;2023-12-20T09:36:55;3.80;99.90
8896;DHT22;4484;48.928;10.066;2023-12-20T09:39:22;3.90;99.90
8896;DHT22;4484;48.928;10.066;2023-12-20T09:42:03;3.90;99.90
8896;DHT22;4484;48.928;10.066;2023-12-20T09:44:31;3.90;99.90
8896;DHT22;4484;48.928;10.066;2023-12-20T09:47:05;4.00;99.90
8896;DHT22;4484;48.928;10.066;2023-12-20T09:49:32;4.20;99.90
8896;DHT22;4484;48.928;10.066;2023-12-20T09:52:00;4.50;99.90
8896;DHT22;4484;48.928;10.066;2023-12-20T09:54:28;4.80;99.90
8896;DHT22;4484;48.928;10.066;2023-12-20T09:56:55;4.90;99.90
8896;DHT22;4484;48.928;10.066;2023-12-20T09:59:22;4.90;99.90
8896;DHT22;4484;48.928;10.066;2023-12-20T10:01:50;4.80;99.90
8896;DHT22;4484;48.928;10.066;2023-12-20T10:04:21;4.70;99.90
8896;DHT22;4484;48.928;10.066;2023-12-20T10:06:56;4.60;99.90
8896;DHT22;4484;48.928;10.066;2023-12-20T10:09:24;4.60;99.90
8896;DHT22;4484;48.928;10.066;2023-12-20T10:11:54;4.50;99.90
8896;DHT22;4484;48.928;10.066;2023-12-20T10:14:22;4.40;99.90
8896;DHT22;4484;48.928;10.066;2023-12-20T10:16:50;4.40;99.90
8896;DHT22;4484;48.928;10.066;2023-12-20T10:19:17;4.30;99.90
8896;DHT22;4484;48.928;10.066;2023-12-20T10:21:45;4.20;99.90
8896;DHT22;4484;48.928;10.066;2023-12-20T10:24:17;4.20;99.90
8896;DHT22;4484;48.928;10.066;2023-12-20T10:26:44;4.10;99.90
8896;DHT22;4484;48.928;10.066;2023-12-20T10:29:11;4.00;99.90
8896;DHT22;4484;48.928;10.066;2023-12-20T10:31:38;4.10;99.90
8896;DHT22;4484;48.928;10.066;2023-12-20T10:34:05;4.10;99.90
8896;DHT22;4484;48.928;10.066;2023-12-20T10:36:33;4.10;99.90
8896;DHT22;4484;48.928;10.066;2023-12-20T10:39:00;4.10;99.90
8896;DHT22;4484;48.928;10.066;2023-12-20T10:41:32;4.20;99.90
8896;DHT22;4484;48.928;10.066;2023-12-20T10:44:00;4.40;99.90
8896;DHT22;4484;48.928;10.066;2023-12-20T10:46:28;4.60;99.90
8896;DHT22;4484;48.928;10.066;2023-12-20T10:48:56;4.90;99.90
8896;DHT22;4484;48.928;10.066;2023-12-20T10:51:24;5.20;99.90
8896;DHT22;4484;48.928;10.066;2023-12-20T10:53:56;5.30;99.90
8896;DHT22;4484;48.928;10.066;2023-12-20T10:56:23;5.30;99.90
8896;DHT22;4484;48.928;10.066;2023-12-20T10:58:50;5.20;99.90
8896;DHT22;4484;48.928;10.066;2023-12-20T11:01:18;5.10;99.90
8896;DHT22;4484;48.928;10.066;2023-12-20T11:03:53;5.00;99.90
8896;DHT22;4484;48.928;10.066;2023-12-20T11:06:36;4.80;99.90
8896;DHT22;4484;48.928;10.066;2023-12-20T11:09:22;4.70;99.90
8896;DHT22;4484;48.928;10.066;2023-12-20T11:14:50;4.50;99.90
8896;DHT22;4484;48.928;10.066;2023-12-20T11:17:17;4.40;99.90
8896;DHT22;4484;48.928;10.066;2023-12-20T11:22:24;4.90;99.90
8896;DHT22;4484;48.928;10.066;2023-12-20T11:24:52;5.60;99.90
8896;DHT22;4484;48.928;10.066;2023-12-20T11:27:20;6.00;99.90
8896;DHT22;4484;48.928;10.066;2023-12-20T11:29:56;6.20;99.90
8896;DHT22;4484;48.928;10.066;2023-12-20T11:34:59;6.00;99.90
8896;DHT22;4484;48.928;10.066;2023-12-20T11:37:30;5.90;99.90
8896;DHT22;4484;48.928;10.066;2023-12-20T11:40:06;5.70;99.90
8896;DHT22;4484;48.928;10.066;2023-12-20T11:42:41;5.50;99.90
8896;DHT22;4484;48.928;10.066;2023-12-20T11:45:13;5.40;99.90
8896;DHT22;4484;48.928;10.066;2023-12-20T11:47:43;5.30;99.90
8896;DHT22;4484;48.928;10.066;2023-12-20T11:50:12;5.10;99.90
8896;DHT22;4484;48.928;10.066;2023-12-20T11:52:39;5.00;99.90
8896;DHT22;4484;48.928;10.066;2023-12-20T11:55:06;4.80;99.90
8896;DHT22;4484;48.928;10.066;2023-12-20T11:57:33;4.70;99.90
8896;DHT22;4484;48.928;10.066;2023-12-20T12:00:00;4.60;99.90
8896;DHT22;4484;48.928;10.066;2023-12-20T12:02:37;4.60;99.90
8896;DHT22;4484;48.928;10.066;2023-12-20T12:05:04;4.50;99.90
8896;DHT22;4484;48.928;10.066;2023-12-20T12:07:34;4.40;99.90
8896;DHT22;4484;48.928;10.066;2023-12-20T12:10:02;4.40;99.90
8896;DHT22;4484;48.928;10.066;2023-12-20T12:12:30;4.30;99.90
8896;DHT22;4484;48.928;10.066;2023-12-20T12:14:59;4.30;99.90
8896;DHT22;4484;48.928;10.066;2023-12-20T12:17:26;4.20;99.90
8896;DHT22;4484;48.928;10.066;2023-12-20T12:20:05;4.10;99.90
8896;DHT22;4484;48.928;10.066;2023-12-20T12:22:32;4.00;99.90
8896;DHT22;4484;48.928;10.066;2023-12-20T12:25:09;4.00;99.90
8896;DHT22;4484;48.928;10.066;2023-12-20T12:27:36;4.00;99.90
8896;DHT22;4484;48.928;10.066;2023-12-20T12:30:05;3.90;99.90
8896;DHT22;4484;48.928;10.066;2023-12-20T12:32:36;3.90;99.90
8896;DHT22;4484;48.928;10.066;2023-12-20T12:35:04;3.90;99.90
8896;DHT22;4484;48.928;10.066;2023-12-20T12:37:38;3.90;99.90
8896;DHT22;4484;48.928;10.066;2023-12-20T12:40:13;3.90;99.90
8896;DHT22;4484;48.928;10.066;2023-12-20T12:42:42;3.80;99.90
8896;DHT22;4484;48.928;10.066;2023-12-20T12:45:10;3.80;99.90
8896;DHT22;4484;48.928;10.066;2023-12-20T12:47:40;3.80;99.90
8896;DHT22;4484;48.928;10.066;2023-12-20T12:50:07;3.80;99.90
8896;DHT22;4484;48.928;10.066;2023-12-20T12:52:34;3.80;99.90
8896;DHT22;4484;48.928;10.066;2023-12-20T12:55:02;3.80;99.90
8896;DHT22;4484;48.928;10.066;2023-12-20T12:57:32;3.80;99.90
8896;DHT22;4484;48.928;10.066;2023-12-20T12:59:59;3.80;99.90
8896;DHT22;4484;48.928;10.066;2023-12-20T13:02:26;3.80;99.90
8896;DHT22;4484;48.928;10.066;2023-12-20T13:04:52;3.70;99.90
8896;DHT22;4484;48.928;10.066;2023-12-20T13:07:19;3.70;99.90
8896;DHT22;4484;48.928;10.066;2023-12-20T13:09:46;3.70;99.90
8896;DHT22;4484;48.928;10.066;2023-12-20T13:12:13;3.80;99.90
8896;DHT22;4484;48.928;10.066;2023-12-20T13:14:40;3.80;99.90
8896;DHT22;4484;48.928;10.066;2023-12-20T13:17:07;3.80;99.90
8896;DHT22;4484;48.928;10.066;2023-12-20T13:19:34;3.80;99.90
8896;DHT22;4484;48.928;10.066;2023-12-20T13:22:01;3.90;99.90
8896;DHT22;4484;48.928;10.066;2023-12-20T13:24:28;3.80;99.90
8896;DHT22;4484;48.928;10.066;2023-12-20T13:26:56;3.80;99.90
8896;DHT22;4484;48.928;10.066;2023-12-20T13:29:24;3.80;99.90
8896;DHT22;4484;48.928;10.066;2023-12-20T13:31:51;3.80;99.90
8896;DHT22;4484;48.928;10.066;2023-12-20T13:34:18;3.80;99.90
8896;DHT22;4484;48.928;10.066;2023-12-20T13:36:45;3.70;99.90
8896;DHT22;4484;48.928;10.066;2023-12-20T13:39:14;3.80;99.90
8896;DHT22;4484;48.928;10.066;2023-12-20T13:41:40;3.70;99.90
8896;DHT22;4484;48.928;10.066;2023-12-20T13:44:07;3.70;99.90
8896;DHT22;4484;48.928;10.066;2023-12-20T13:46:34;3.70;99.90
8896;DHT22;4484;48.928;10.066;2023-12-20T13:49:02;3.70;99.90
8896;DHT22;4484;48.928;10.066;2023-12-20T13:51:29;3.60;99.90
8896;DHT22;4484;48.928;10.066;2023-12-20T13:53:56;3.60;99.90
8896;DHT22;4484;48.928;10.066;2023-12-20T13:56:23;3.60;99.90
8896;DHT22;4484;48.928;10.066;2023-12-20T13:58:50;3.60;99.90
8896;DHT22;4484;48.928;10.066;2023-12-20T14:01:17;3.60;99.90
8896;DHT22;4484;48.928;10.066;2023-12-20T14:03:44;3.60;99.90
8896;DHT22;4484;48.928;10.066;2023-12-20T14:06:11;3.60;99.90
8896;DHT22;4484;48.928;10.066;2023-12-20T14:08:38;3.50;99.90
8896;DHT22;4484;48.928;10.066;2023-12-20T14:11:05;3.50;99.90
8896;DHT22;4484;48.928;10.066;2023-12-20T14:13:32;3.50;99.90
8896;DHT22;4484;48.928;10.066;2023-12-20T14:15:58;3.50;99.90
8896;DHT22;4484;48.928;10.066;2023-12-20T14:18:27;3.40;99.90
8896;DHT22;4484;48.928;10.066;2023-12-20T14:20:54;3.40;99.90
8896;DHT22;4484;48.928;10.066;2023-12-20T14:23:21;3.40;99.90
8896;DHT22;4484;48.928;10.066;2023-12-20T14:25:49;3.40;99.90
8896;DHT22;4484;48.928;10.066;2023-12-20T14:28:19;3.40;99.90
8896;DHT22;4484;48.928;10.066;2023-12-20T14:30:46;3.40;99.90
8896;DHT22;4484;48.928;10.066;2023-12-20T14:33:13;3.30;99.90
8896;DHT22;4484;48.928;10.066;2023-12-20T14:35:40;3.30;99.90
8896;DHT22;4484;48.928;10.066;2023-12-20T14:38:11;3.30;99.90
8896;DHT22;4484;48.928;10.066;2023-12-20T14:40:42;3.30;99.90
8896;DHT22;4484;48.928;10.066;2023-12-20T14:43:08;3.30;99.90
8896;DHT22;4484;48.928;10.066;2023-12-20T14:45:35;3.30;99.90
8896;DHT22;4484;48.928;10.066;2023-12-20T14:48:02;3.30;99.90
8896;DHT22;4484;48.928;10.066;2023-12-20T14:50:29;3.30;99.90
8896;DHT22;4484;48.928;10.066;2023-12-20T14:52:56;3.30;99.90
8896;DHT22;4484;48.928;10.066;2023-12-20T14:55:23;3.30;99.90
8896;DHT22;4484;48.928;10.066;2023-12-20T14:57:50;3.30;99.90
8896;DHT22;4484;48.928;10.066;2023-12-20T15:00:17;3.30;99.90
8896;DHT22;4484;48.928;10.066;2023-12-20T15:02:45;3.30;99.90
8896;DHT22;4484;48.928;10.066;2023-12-20T15:05:13;3.30;99.90
8896;DHT22;4484;48.928;10.066;2023-12-20T15:07:41;3.20;99.90
8896;DHT22;4484;48.928;10.066;2023-12-20T15:10:08;3.20;99.90
8896;DHT22;4484;48.928;10.066;2023-12-20T15:12:35;3.20;99.90
8896;DHT22;4484;48.928;10.066;2023-12-20T15:15:02;3.20;99.90
8896;DHT22;4484;48.928;10.066;2023-12-20T15:17:29;3.20;99.90
8896;DHT22;4484;48.928;10.066;2023-12-20T15:19:56;3.10;99.90
8896;DHT22;4484;48.928;10.066;2023-12-20T15:22:23;3.10;99.90
8896;DHT22;4484;48.928;10.066;2023-12-20T15:24:52;3.10;99.90
8896;DHT22;4484;48.928;10.066;2023-12-20T15:27:21;3.20;99.90
8896;DHT22;4484;48.928;10.066;2023-12-20T15:29:51;3.10;99.90
8896;DHT22;4484;48.928;10.066;2023-12-20T15:32:18;3.10;99.90
8896;DHT22;4484;48.928;10.066;2023-12-20T15:34:48;3.10;99.90
8896;DHT22;4484;48.928;10.066;2023-12-20T15:37:15;3.00;99.90
8896;DHT22;4484;48.928;10.066;2023-12-20T15:39:42;3.00;99.90
8896;DHT22;4484;48.928;10.066;2023-12-20T15:42:09;3.00;99.90
8896;DHT22;4484;48.928;10.066;2023-12-20T15:44:36;3.00;99.90
8896;DHT22;4484;48.928;10.066;2023-12-20T15:47:03;2.90;99.90
8896;DHT22;4484;48.928;10.066;2023-12-20T15:49:30;2.90;99.90
8896;DHT22;4484;48.928;10.066;2023-12-20T15:51:57;2.90;99.90
8896;DHT22;4484;48.928;10.066;2023-12-20T15:54:24;2.90;99.90
8896;DHT22;4484;48.928;10.066;2023-12-20T15:56:51;2.90;99.90
8896;DHT22;4484;48.928;10.066;2023-12-20T15:59:18;2.90;99.90
8896;DHT22;4484;48.928;10.066;2023-12-20T16:01:45;2.90;99.90
8896;DHT22;4484;48.928;10.066;2023-12-20T16:04:20;2.80;99.90
8896;DHT22;4484;48.928;10.066;2023-12-20T16:06:47;2.80;99.90
8896;DHT22;4484;48.928;10.066;2023-12-20T16:09:14;2.80;99.90
8896;DHT22;4484;48.928;10.066;2023-12-20T16:11:42;2.80;99.90
8896;DHT22;4484;48.928;10.066;2023-12-20T16:14:11;2.80;99.90